Time;durP1;ratioP1;P1;durP2;ratioP2;P2;SDS_P1;SDS_P2;PMS_P1;PMS_P2;Temp;Humidity;BMP_temperature;BMP_pressure;BME280_temperature;BME280_humidity;BME280_pressure;Samples;Min_cycle;Max_cycle;Signal;HPM_P1;HPM_P2
2023/05/14 00:01:02;;;;;;;21.90;19.60;;;;;;;-128.00;-1.00;-1.00;105749;1251;1005074;-73
2023/05/14 00:03:29;;;;;;;21.50;19.20;;;;;;;-128.00;-1.00;-1.00;105585;1251;1004024;-73
2023/05/14 00:05:56;;;;;;;23.20;18.50;;;;;;;-128.00;-1.00;-1.00;105739;1251;1004011;-73
2023/05/14 00:08:23;;;;;;;23.00;19.70;;;;;;;-128.00;-1.00;-1.00;105710;1251;1005094;-72
2023/05/14 00:10:49;;;;;;;24.80;21.30;;;;;;;-128.00;-1.00;-1.00;105786;1251;1003419;-72
2023/05/14 00:13:16;;;;;;;24.00;20.60;;;;;;;-128.00;-1.00;-1.00;105689;1251;1003502;-73
2023/05/14 00:15:43;;;;;;;23.50;21.00;;;;;;;-128.00;-1.00;-1.00;105701;1251;1004200;-73
2023/05/14 00:18:11;;;;;;;25.60;22.60;;;;;;;-128.00;-1.00;-1.00;105389;1251;1005092;-73
2023/05/14 00:20:37;;;;;;;23.70;21.20;;;;;;;-128.00;-1.00;-1.00;105668;1251;1004326;-73
2023/05/14 00:23:04;;;;;;;26.30;22.60;;;;;;;-128.00;-1.00;-1.00;105677;1251;1004349;-73
2023/05/14 00:25:30;;;;;;;29.10;26.20;;;;;;;-128.00;-1.00;-1.00;105755;1251;1004807;-73
2023/05/14 00:27:57;;;;;;;32.80;26.70;;;;;;;-128.00;-1.00;-1.00;105690;1251;1004637;-73
2023/05/14 00:30:23;;;;;;;24.20;21.50;;;;;;;-128.00;-1.00;-1.00;105757;1251;1003763;-74
2023/05/14 00:32:50;;;;;;;25.70;22.10;;;;;;;-128.00;-1.00;-1.00;105400;1251;1003481;-74
2023/05/14 00:35:17;;;;;;;26.40;23.20;;;;;;;-128.00;-1.00;-1.00;105597;1251;1004713;-74
2023/05/14 00:37:43;;;;;;;26.00;22.00;;;;;;;-128.00;-1.00;-1.00;105758;1251;1004462;-73
2023/05/14 00:40:11;;;;;;;25.70;21.30;;;;;;;-128.00;-1.00;-1.00;105701;1251;1005435;-74
2023/05/14 00:42:39;;;;;;;22.40;20.00;;;;;;;-128.00;-1.00;-1.00;105541;1251;1004824;-73
2023/05/14 00:45:06;;;;;;;25.40;20.10;;;;;;;-128.00;-1.00;-1.00;105568;1251;1003776;-73
2023/05/14 00:47:33;;;;;;;22.90;20.50;;;;;;;-128.00;-1.00;-1.00;105393;1251;1004105;-73
2023/05/14 00:50:01;;;;;;;22.50;20.10;;;;;;;-128.00;-1.00;-1.00;105723;1251;1005221;-73
2023/05/14 00:52:27;;;;;;;23.90;20.50;;;;;;;-128.00;-1.00;-1.00;105659;1251;1004503;-71
2023/05/14 00:54:55;;;;;;;24.50;20.10;;;;;;;-128.00;-1.00;-1.00;105646;1251;1004608;-73
2023/05/14 00:57:22;;;;;;;26.70;21.00;;;;;;;-128.00;-1.00;-1.00;105598;1251;1003805;-72
2023/05/14 00:59:49;;;;;;;25.30;20.60;;;;;;;-128.00;-1.00;-1.00;105702;1251;1004681;-72
2023/05/14 01:02:16;;;;;;;23.10;20.30;;;;;;;-128.00;-1.00;-1.00;105747;1251;1005142;-72
2023/05/14 01:04:42;;;;;;;23.30;20.00;;;;;;;-128.00;-1.00;-1.00;105723;1251;1004470;-73
2023/05/14 01:07:24;;;;;;;23.60;20.50;;;;;;;-128.00;-1.00;-1.00;105707;1251;1004857;-71
2023/05/14 01:10:02;;;;;;;23.80;19.00;;;;;;;-128.00;-1.00;-1.00;105693;1251;1047658;-72
2023/05/14 01:12:49;;;;;;;21.00;17.80;;;;;;;-128.00;-1.00;-1.00;105673;1251;1062085;-72
2023/05/14 01:15:27;;;;;;;25.80;20.80;;;;;;;-128.00;-1.00;-1.00;105603;1251;1055246;-72
2023/05/14 01:17:58;;;;;;;21.10;18.40;;;;;;;-128.00;-1.00;-1.00;105701;1251;1060716;-72
2023/05/14 01:20:25;;;;;;;22.00;17.60;;;;;;;-128.00;-1.00;-1.00;105691;1251;1044942;-72
2023/05/14 01:22:52;;;;;;;20.60;17.90;;;;;;;-128.00;-1.00;-1.00;105689;1251;1003352;-72
2023/05/14 01:25:19;;;;;;;20.80;17.10;;;;;;;-128.00;-1.00;-1.00;105716;1251;1004155;-73
2023/05/14 01:27:54;;;;;;;20.80;18.60;;;;;;;-128.00;-1.00;-1.00;105720;1251;1003816;-73
2023/05/14 01:30:49;;;;;;;22.90;18.70;;;;;;;-128.00;-1.00;-1.00;105692;1251;1059161;-73
2023/05/14 01:33:18;;;;;;;19.70;17.10;;;;;;;-128.00;-1.00;-1.00;105226;1258;1046863;-73
2023/05/14 01:35:45;;;;;;;25.40;20.20;;;;;;;-128.00;-1.00;-1.00;105263;1258;1047391;-73
2023/05/14 01:38:16;;;;;;;20.90;18.00;;;;;;;-128.00;-1.00;-1.00;105252;1258;1004090;-73
2023/05/14 01:40:44;;;;;;;20.10;17.50;;;;;;;-128.00;-1.00;-1.00;105211;1258;1056477;-73
2023/05/14 01:43:11;;;;;;;22.50;20.30;;;;;;;-128.00;-1.00;-1.00;105263;1258;1004369;-72
2023/05/14 01:45:37;;;;;;;24.50;20.20;;;;;;;-128.00;-1.00;-1.00;105202;1258;1004009;-72
2023/05/14 01:48:04;;;;;;;23.60;21.10;;;;;;;-128.00;-1.00;-1.00;105296;1259;1004160;-73
2023/05/14 01:50:31;;;;;;;19.80;17.60;;;;;;;-128.00;-1.00;-1.00;105204;1259;1004722;-72
2023/05/14 01:52:58;;;;;;;22.50;20.20;;;;;;;-128.00;-1.00;-1.00;105225;1259;1003527;-73
2023/05/14 01:55:24;;;;;;;23.00;20.30;;;;;;;-128.00;-1.00;-1.00;105225;1257;1003512;-72
2023/05/14 01:57:52;;;;;;;23.30;20.50;;;;;;;-128.00;-1.00;-1.00;105111;1258;1004956;-73
2023/05/14 02:00:30;;;;;;;22.70;20.20;;;;;;;-128.00;-1.00;-1.00;105250;1258;1004886;-73
2023/05/14 02:02:57;;;;;;;21.50;19.30;;;;;;;-128.00;-1.00;-1.00;105245;1259;1061707;-72
2023/05/14 02:05:23;;;;;;;21.60;18.60;;;;;;;-128.00;-1.00;-1.00;105277;1258;1004206;-72
2023/05/14 02:07:50;;;;;;;22.80;20.40;;;;;;;-128.00;-1.00;-1.00;105222;1259;1004490;-74
2023/05/14 02:10:16;;;;;;;22.60;19.00;;;;;;;-128.00;-1.00;-1.00;105474;1251;1003229;-73
2023/05/14 02:12:43;;;;;;;21.40;19.20;;;;;;;-128.00;-1.00;-1.00;105722;1251;1003859;-72
2023/05/14 02:15:10;;;;;;;22.90;19.50;;;;;;;-128.00;-1.00;-1.00;105770;1251;1004469;-74
2023/05/14 02:17:36;;;;;;;22.00;19.20;;;;;;;-128.00;-1.00;-1.00;105726;1251;1004628;-72
2023/05/14 02:20:04;;;;;;;28.30;21.40;;;;;;;-128.00;-1.00;-1.00;105729;1251;1004006;-73
2023/05/14 02:22:30;;;;;;;25.00;21.00;;;;;;;-128.00;-1.00;-1.00;105587;1251;1004709;-72
2023/05/14 02:24:57;;;;;;;23.90;20.20;;;;;;;-128.00;-1.00;-1.00;105819;1251;1003889;-74
2023/05/14 02:27:23;;;;;;;21.90;19.60;;;;;;;-128.00;-1.00;-1.00;105756;1251;1003818;-73
2023/05/14 02:29:50;;;;;;;22.90;19.40;;;;;;;-128.00;-1.00;-1.00;105792;1251;1004406;-72
2023/05/14 02:32:16;;;;;;;21.80;19.50;;;;;;;-128.00;-1.00;-1.00;105748;1251;1004634;-72
2023/05/14 02:34:43;;;;;;;23.20;19.80;;;;;;;-128.00;-1.00;-1.00;105755;1251;1004957;-72
2023/05/14 02:37:09;;;;;;;23.20;19.70;;;;;;;-128.00;-1.00;-1.00;105699;1251;1004767;-73
2023/05/14 02:39:36;;;;;;;23.70;21.20;;;;;;;-128.00;-1.00;-1.00;105457;1251;1003755;-72
2023/05/14 02:42:02;;;;;;;22.60;20.30;;;;;;;-128.00;-1.00;-1.00;105781;1251;1004591;-72
2023/05/14 02:44:30;;;;;;;23.40;20.70;;;;;;;-128.00;-1.00;-1.00;105425;1251;1004255;-73
2023/05/14 02:46:57;;;;;;;23.40;19.00;;;;;;;-128.00;-1.00;-1.00;105715;1251;1003641;-72
2023/05/14 02:49:23;;;;;;;24.00;20.40;;;;;;;-128.00;-1.00;-1.00;105731;1251;1004124;-72
2023/05/14 02:51:49;;;;;;;22.50;19.80;;;;;;;-128.00;-1.00;-1.00;105748;1251;1004573;-72
2023/05/14 02:54:16;;;;;;;22.90;19.50;;;;;;;-128.00;-1.00;-1.00;105733;1251;1004006;-73
2023/05/14 02:56:42;;;;;;;21.80;19.50;;;;;;;-128.00;-1.00;-1.00;105685;1251;1004797;-72
2023/05/14 02:59:09;;;;;;;21.20;19.10;;;;;;;-128.00;-1.00;-1.00;105682;1251;1003827;-72
2023/05/14 03:01:35;;;;;;;21.50;19.20;;;;;;;-128.00;-1.00;-1.00;105719;1251;1004447;-72
2023/05/14 03:04:02;;;;;;;21.80;18.80;;;;;;;-128.00;-1.00;-1.00;105748;1251;1004798;-72
2023/05/14 03:06:30;;;;;;;21.60;18.60;;;;;;;-128.00;-1.00;-1.00;105778;1251;1005007;-73
2023/05/14 03:08:56;;;;;;;23.10;18.70;;;;;;;-128.00;-1.00;-1.00;105737;1251;1004113;-72
2023/05/14 03:11:23;;;;;;;21.10;19.00;;;;;;;-128.00;-1.00;-1.00;105725;1251;1003338;-72
2023/05/14 03:13:49;;;;;;;20.90;18.50;;;;;;;-128.00;-1.00;-1.00;105767;1251;1004867;-73
2023/05/14 03:16:16;;;;;;;20.70;18.60;;;;;;;-128.00;-1.00;-1.00;105645;1251;1004357;-72
2023/05/14 03:18:42;;;;;;;23.20;20.60;;;;;;;-128.00;-1.00;-1.00;105753;1251;1004088;-72
2023/05/14 03:21:09;;;;;;;22.00;18.60;;;;;;;-128.00;-1.00;-1.00;105564;1251;1004935;-73
2023/05/14 03:23:35;;;;;;;21.50;19.00;;;;;;;-128.00;-1.00;-1.00;105730;1252;1003277;-73
2023/05/14 03:26:02;;;;;;;21.20;18.70;;;;;;;-128.00;-1.00;-1.00;105767;1251;1004004;-73
2023/05/14 03:28:29;;;;;;;20.70;18.50;;;;;;;-128.00;-1.00;-1.00;105732;1251;1005164;-72
2023/05/14 03:30:56;;;;;;;21.70;18.70;;;;;;;-128.00;-1.00;-1.00;105732;1251;1003860;-73
2023/05/14 03:33:22;;;;;;;23.10;17.90;;;;;;;-128.00;-1.00;-1.00;105698;1251;1004314;-72
2023/05/14 03:35:49;;;;;;;18.40;16.60;;;;;;;-128.00;-1.00;-1.00;105758;1251;1004300;-72
2023/05/14 03:38:15;;;;;;;18.00;16.10;;;;;;;-128.00;-1.00;-1.00;105723;1251;1005116;-73
2023/05/14 03:40:43;;;;;;;17.90;16.00;;;;;;;-128.00;-1.00;-1.00;105331;1255;1004797;-73
2023/05/14 03:43:10;;;;;;;18.50;16.60;;;;;;;-128.00;-1.00;-1.00;105313;1255;1004539;-72
2023/05/14 03:45:36;;;;;;;18.50;16.60;;;;;;;-128.00;-1.00;-1.00;105319;1255;1003783;-73
2023/05/14 03:48:03;;;;;;;17.80;15.60;;;;;;;-128.00;-1.00;-1.00;105334;1255;1004452;-73
2023/05/14 03:50:30;;;;;;;17.00;14.60;;;;;;;-128.00;-1.00;-1.00;105304;1255;1004857;-73
2023/05/14 03:52:57;;;;;;;17.20;15.40;;;;;;;-128.00;-1.00;-1.00;105313;1255;1003696;-73
2023/05/14 03:55:23;;;;;;;15.40;13.80;;;;;;;-128.00;-1.00;-1.00;105344;1255;1004028;-73
2023/05/14 03:57:49;;;;;;;17.80;14.20;;;;;;;-128.00;-1.00;-1.00;105347;1255;1003448;-73
2023/05/14 04:00:16;;;;;;;15.80;14.00;;;;;;;-128.00;-1.00;-1.00;105284;1255;1004798;-73
2023/05/14 04:02:43;;;;;;;15.40;13.70;;;;;;;-128.00;-1.00;-1.00;105333;1255;1004017;-73
2023/05/14 04:05:09;;;;;;;15.70;14.20;;;;;;;-128.00;-1.00;-1.00;105330;1255;1004740;-73
2023/05/14 04:07:36;;;;;;;17.50;13.80;;;;;;;-128.00;-1.00;-1.00;105338;1255;1003492;-73
2023/05/14 04:10:03;;;;;;;14.20;12.70;;;;;;;-128.00;-1.00;-1.00;105304;1255;1004779;-73
2023/05/14 04:12:29;;;;;;;15.40;13.10;;;;;;;-128.00;-1.00;-1.00;105623;1251;1004660;-73
2023/05/14 04:14:57;;;;;;;14.50;13.00;;;;;;;-128.00;-1.00;-1.00;105760;1251;1004140;-73
2023/05/14 04:17:23;;;;;;;14.30;12.90;;;;;;;-128.00;-1.00;-1.00;105718;1251;1004254;-73
2023/05/14 04:19:50;;;;;;;14.50;13.00;;;;;;;-128.00;-1.00;-1.00;105726;1251;1004304;-73
2023/05/14 04:22:16;;;;;;;13.60;12.30;;;;;;;-128.00;-1.00;-1.00;105705;1251;1004089;-73
2023/05/14 04:24:43;;;;;;;13.50;12.10;;;;;;;-128.00;-1.00;-1.00;105717;1251;1005007;-72
2023/05/14 04:27:09;;;;;;;14.20;12.80;;;;;;;-128.00;-1.00;-1.00;105698;1251;1004297;-73
2023/05/14 04:29:36;;;;;;;13.50;12.20;;;;;;;-128.00;-1.00;-1.00;105742;1251;1003479;-72
2023/05/14 04:32:03;;;;;;;14.30;12.80;;;;;;;-128.00;-1.00;-1.00;105766;1251;1004199;-73
2023/05/14 04:34:29;;;;;;;16.10;14.70;;;;;;;-128.00;-1.00;-1.00;105738;1251;1004079;-73
2023/05/14 04:36:56;;;;;;;13.70;12.30;;;;;;;-128.00;-1.00;-1.00;105670;1251;1004220;-73
2023/05/14 04:39:22;;;;;;;13.80;12.40;;;;;;;-128.00;-1.00;-1.00;105775;1251;1004500;-73
2023/05/14 04:41:49;;;;;;;13.40;12.10;;;;;;;-128.00;-1.00;-1.00;105525;1251;1003770;-73
2023/05/14 04:44:15;;;;;;;12.50;11.30;;;;;;;-128.00;-1.00;-1.00;105727;1251;1004218;-73
2023/05/14 04:46:42;;;;;;;12.70;11.50;;;;;;;-128.00;-1.00;-1.00;105736;1251;1003827;-73
2023/05/14 04:49:08;;;;;;;13.20;12.00;;;;;;;-128.00;-1.00;-1.00;105705;1251;1003516;-72
2023/05/14 04:51:35;;;;;;;12.00;10.90;;;;;;;-128.00;-1.00;-1.00;105690;1251;1004256;-73
2023/05/14 04:54:01;;;;;;;11.90;10.80;;;;;;;-128.00;-1.00;-1.00;105738;1251;1003574;-73
2023/05/14 04:56:27;;;;;;;11.90;10.70;;;;;;;-128.00;-1.00;-1.00;105707;1251;1004230;-75
2023/05/14 04:58:54;;;;;;;12.00;10.80;;;;;;;-128.00;-1.00;-1.00;105701;1251;1004360;-72
2023/05/14 05:01:22;;;;;;;11.70;10.60;;;;;;;-128.00;-1.00;-1.00;105722;1251;1004478;-73
2023/05/14 05:03:48;;;;;;;11.80;10.70;;;;;;;-128.00;-1.00;-1.00;105730;1251;1004130;-72
2023/05/14 05:06:15;;;;;;;11.80;10.60;;;;;;;-128.00;-1.00;-1.00;105752;1251;1004454;-72
2023/05/14 05:08:41;;;;;;;11.60;10.60;;;;;;;-128.00;-1.00;-1.00;105792;1251;1004230;-72
2023/05/14 05:11:08;;;;;;;11.00;10.00;;;;;;;-128.00;-1.00;-1.00;105735;1251;1005037;-73
2023/05/14 05:13:34;;;;;;;10.60;9.60;;;;;;;-128.00;-1.00;-1.00;105738;1251;1004668;-72
2023/05/14 05:16:01;;;;;;;11.10;10.10;;;;;;;-128.00;-1.00;-1.00;105762;1251;1004516;-75
2023/05/14 05:18:27;;;;;;;10.50;9.50;;;;;;;-128.00;-1.00;-1.00;105754;1251;1004355;-74
2023/05/14 05:20:55;;;;;;;10.10;9.10;;;;;;;-128.00;-1.00;-1.00;105736;1251;1004782;-75
2023/05/14 05:23:21;;;;;;;10.00;8.80;;;;;;;-128.00;-1.00;-1.00;105697;1251;1004929;-74
2023/05/14 05:25:49;;;;;;;10.90;10.00;;;;;;;-128.00;-1.00;-1.00;105786;1251;1005076;-73
2023/05/14 05:28:15;;;;;;;10.50;9.50;;;;;;;-128.00;-1.00;-1.00;105616;1251;1004671;-74
2023/05/14 05:30:44;;;;;;;10.90;9.90;;;;;;;-128.00;-1.00;-1.00;105745;1251;1004726;-75
2023/05/14 05:33:11;;;;;;;10.50;9.50;;;;;;;-128.00;-1.00;-1.00;105729;1251;1004550;-74
2023/05/14 05:35:37;;;;;;;10.20;9.30;;;;;;;-128.00;-1.00;-1.00;105664;1251;1003931;-73
2023/05/14 05:38:04;;;;;;;10.10;9.10;;;;;;;-128.00;-1.00;-1.00;105759;1251;1003265;-75
2023/05/14 05:40:30;;;;;;;10.50;9.40;;;;;;;-128.00;-1.00;-1.00;105761;1251;1004398;-74
2023/05/14 05:42:57;;;;;;;9.50;8.70;;;;;;;-128.00;-1.00;-1.00;105794;1251;1004599;-74
2023/05/14 05:45:23;;;;;;;10.30;9.30;;;;;;;-128.00;-1.00;-1.00;105706;1252;1004128;-76
2023/05/14 05:47:50;;;;;;;10.50;9.50;;;;;;;-128.00;-1.00;-1.00;105775;1251;1004605;-74
2023/05/14 05:50:16;;;;;;;9.90;9.00;;;;;;;-128.00;-1.00;-1.00;105713;1251;1004777;-75
2023/05/14 05:52:43;;;;;;;11.90;10.80;;;;;;;-128.00;-1.00;-1.00;105738;1251;1003771;-74
2023/05/14 05:55:09;;;;;;;9.70;8.80;;;;;;;-128.00;-1.00;-1.00;105756;1251;1004346;-74
2023/05/14 05:57:36;;;;;;;9.70;8.90;;;;;;;-128.00;-1.00;-1.00;105743;1251;1004379;-73
2023/05/14 06:00:11;;;;;;;10.70;9.80;;;;;;;-128.00;-1.00;-1.00;105680;1251;1003802;-72
2023/05/14 06:02:39;;;;;;;9.90;8.90;;;;;;;-128.00;-1.00;-1.00;105766;1251;1045281;-73
2023/05/14 06:05:08;;;;;;;10.70;9.60;;;;;;;-128.00;-1.00;-1.00;105697;1251;1003787;-75
2023/05/14 06:07:34;;;;;;;10.90;9.70;;;;;;;-128.00;-1.00;-1.00;105716;1251;1004161;-72
2023/05/14 06:10:01;;;;;;;11.20;9.90;;;;;;;-128.00;-1.00;-1.00;105722;1251;1004161;-75
2023/05/14 06:12:28;;;;;;;11.90;10.70;;;;;;;-128.00;-1.00;-1.00;105557;1251;1004198;-74
2023/05/14 06:14:56;;;;;;;12.70;11.40;;;;;;;-128.00;-1.00;-1.00;105749;1251;1003481;-74
2023/05/14 06:17:24;;;;;;;11.40;10.30;;;;;;;-128.00;-1.00;-1.00;105825;1251;1047333;-73
2023/05/14 06:19:51;;;;;;;11.10;10.00;;;;;;;-128.00;-1.00;-1.00;105716;1251;1004430;-74
2023/05/14 06:22:17;;;;;;;11.20;10.10;;;;;;;-128.00;-1.00;-1.00;105764;1252;1003910;-73
2023/05/14 06:24:44;;;;;;;10.50;9.50;;;;;;;-128.00;-1.00;-1.00;105510;1251;1004560;-75
2023/05/14 06:27:10;;;;;;;9.20;8.40;;;;;;;-128.00;-1.00;-1.00;105543;1251;1004217;-75
2023/05/14 06:29:37;;;;;;;9.80;8.90;;;;;;;-128.00;-1.00;-1.00;105793;1251;1004262;-74
2023/05/14 06:32:04;;;;;;;10.00;9.10;;;;;;;-128.00;-1.00;-1.00;105757;1251;1004506;-74
2023/05/14 06:34:30;;;;;;;9.70;8.90;;;;;;;-128.00;-1.00;-1.00;105752;1251;1005271;-74
2023/05/14 06:36:57;;;;;;;10.10;9.20;;;;;;;-128.00;-1.00;-1.00;105760;1251;1003904;-73
2023/05/14 06:39:24;;;;;;;11.00;10.00;;;;;;;-128.00;-1.00;-1.00;105731;1251;1004300;-73
2023/05/14 06:41:50;;;;;;;10.30;9.40;;;;;;;-128.00;-1.00;-1.00;105768;1250;1004467;-73
2023/05/14 06:44:18;;;;;;;9.70;8.80;;;;;;;-128.00;-1.00;-1.00;105723;1251;1004296;-73
2023/05/14 06:46:44;;;;;;;10.20;9.20;;;;;;;-128.00;-1.00;-1.00;105783;1251;1004837;-73
2023/05/14 06:49:11;;;;;;;9.70;8.80;;;;;;;-128.00;-1.00;-1.00;105769;1251;1004354;-72
2023/05/14 06:51:37;;;;;;;8.50;7.70;;;;;;;-128.00;-1.00;-1.00;105735;1251;1004102;-74
2023/05/14 06:54:04;;;;;;;8.70;7.90;;;;;;;-128.00;-1.00;-1.00;105828;1251;1003854;-72
2023/05/14 06:56:30;;;;;;;10.00;9.20;;;;;;;-128.00;-1.00;-1.00;105756;1251;1004832;-73
2023/05/14 06:58:57;;;;;;;9.30;8.10;;;;;;;-128.00;-1.00;-1.00;105766;1251;1004802;-74
2023/05/14 07:01:23;;;;;;;10.10;9.20;;;;;;;-128.00;-1.00;-1.00;105540;1251;1004142;-73
2023/05/14 07:03:50;;;;;;;9.10;8.10;;;;;;;-128.00;-1.00;-1.00;105708;1251;1004376;-75
2023/05/14 07:06:16;;;;;;;8.60;7.80;;;;;;;-128.00;-1.00;-1.00;105744;1251;1003417;-74
2023/05/14 07:08:46;;;;;;;9.30;8.40;;;;;;;-128.00;-1.00;-1.00;105718;1251;1004386;-73
2023/05/14 07:11:12;;;;;;;9.70;8.80;;;;;;;-128.00;-1.00;-1.00;105731;1251;1055717;-73
2023/05/14 07:13:39;;;;;;;10.00;9.00;;;;;;;-128.00;-1.00;-1.00;105749;1251;1003995;-73
2023/05/14 07:16:10;;;;;;;9.10;8.10;;;;;;;-128.00;-1.00;-1.00;105664;1251;1004989;-75
2023/05/14 07:18:37;;;;;;;8.30;7.50;;;;;;;-128.00;-1.00;-1.00;105692;1251;1047743;-74
2023/05/14 07:21:06;;;;;;;9.10;8.20;;;;;;;-128.00;-1.00;-1.00;105788;1251;1003973;-74
2023/05/14 07:23:35;;;;;;;10.20;9.20;;;;;;;-128.00;-1.00;-1.00;105562;1252;1054836;-74
2023/05/14 07:26:03;;;;;;;8.90;8.00;;;;;;;-128.00;-1.00;-1.00;105490;1251;1059830;-74
2023/05/14 07:28:30;;;;;;;9.80;9.00;;;;;;;-128.00;-1.00;-1.00;105656;1252;1004191;-72
2023/05/14 07:30:56;;;;;;;10.40;8.50;;;;;;;-128.00;-1.00;-1.00;105761;1251;1003554;-75
2023/05/14 07:33:25;;;;;;;9.50;8.60;;;;;;;-128.00;-1.00;-1.00;105777;1251;1004849;-72
2023/05/14 07:35:52;;;;;;;9.90;8.90;;;;;;;-128.00;-1.00;-1.00;105763;1251;1055988;-74
2023/05/14 07:38:18;;;;;;;10.80;9.80;;;;;;;-128.00;-1.00;-1.00;105741;1251;1004860;-74
2023/05/14 07:40:45;;;;;;;9.70;8.80;;;;;;;-128.00;-1.00;-1.00;105744;1251;1004282;-74
2023/05/14 07:43:13;;;;;;;10.20;9.10;;;;;;;-128.00;-1.00;-1.00;105737;1251;1004060;-74
2023/05/14 07:45:39;;;;;;;10.60;9.20;;;;;;;-128.00;-1.00;-1.00;105726;1251;1003906;-74
2023/05/14 07:48:06;;;;;;;10.30;8.60;;;;;;;-128.00;-1.00;-1.00;105732;1251;1004534;-73
2023/05/14 07:50:32;;;;;;;9.10;8.20;;;;;;;-128.00;-1.00;-1.00;105752;1251;1004833;-74
2023/05/14 07:52:59;;;;;;;9.10;8.30;;;;;;;-128.00;-1.00;-1.00;105729;1251;1003995;-73
2023/05/14 07:55:25;;;;;;;9.60;8.80;;;;;;;-128.00;-1.00;-1.00;105752;1251;1004205;-73
2023/05/14 07:57:52;;;;;;;10.70;9.70;;;;;;;-128.00;-1.00;-1.00;105736;1251;1004920;-73
2023/05/14 08:00:18;;;;;;;10.00;9.10;;;;;;;-128.00;-1.00;-1.00;105741;1251;1003348;-75
2023/05/14 08:02:45;;;;;;;9.10;8.30;;;;;;;-128.00;-1.00;-1.00;105746;1251;1005030;-73
2023/05/14 08:05:11;;;;;;;9.10;8.20;;;;;;;-128.00;-1.00;-1.00;105730;1251;1003852;-73
2023/05/14 08:07:38;;;;;;;9.60;8.60;;;;;;;-128.00;-1.00;-1.00;105780;1251;1004696;-74
2023/05/14 08:10:06;;;;;;;10.30;9.30;;;;;;;-128.00;-1.00;-1.00;105721;1251;1004960;-74
2023/05/14 08:12:33;;;;;;;9.90;8.90;;;;;;;-128.00;-1.00;-1.00;105512;1251;1055835;-74
2023/05/14 08:14:59;;;;;;;9.40;8.50;;;;;;;-128.00;-1.00;-1.00;105734;1253;1003661;-74
2023/05/14 08:17:26;;;;;;;9.00;8.10;;;;;;;-128.00;-1.00;-1.00;105469;1251;1004978;-74
2023/05/14 08:19:53;;;;;;;10.80;9.90;;;;;;;-128.00;-1.00;-1.00;105766;1251;1004626;-73
2023/05/14 08:22:20;;;;;;;9.10;8.20;;;;;;;-128.00;-1.00;-1.00;105748;1252;1004342;-73
2023/05/14 08:24:47;;;;;;;9.00;8.10;;;;;;;-128.00;-1.00;-1.00;105751;1251;1003682;-74
2023/05/14 08:27:13;;;;;;;8.60;7.90;;;;;;;-128.00;-1.00;-1.00;105744;1251;1003318;-73
2023/05/14 08:29:40;;;;;;;10.30;9.40;;;;;;;-128.00;-1.00;-1.00;105736;1251;1004426;-73
2023/05/14 08:32:07;;;;;;;13.50;10.50;;;;;;;-128.00;-1.00;-1.00;105756;1252;1004388;-73
2023/05/14 08:34:34;;;;;;;11.00;9.90;;;;;;;-128.00;-1.00;-1.00;105563;1252;1004546;-73
2023/05/14 08:37:01;;;;;;;13.00;11.40;;;;;;;-128.00;-1.00;-1.00;105785;1253;1004518;-73
2023/05/14 08:39:27;;;;;;;11.40;10.20;;;;;;;-128.00;-1.00;-1.00;105779;1251;1004609;-72
2023/05/14 08:41:56;;;;;;;10.70;9.70;;;;;;;-128.00;-1.00;-1.00;105524;1251;1004139;-72
2023/05/14 08:44:42;;;;;;;10.10;9.10;;;;;;;-128.00;-1.00;-1.00;105427;1251;1047066;-72
2023/05/14 08:47:11;;;;;;;9.30;8.40;;;;;;;-128.00;-1.00;-1.00;105547;1251;1061037;-72
2023/05/14 08:49:41;;;;;;;11.70;10.00;;;;;;;-128.00;-1.00;-1.00;105790;1251;1054619;-72
2023/05/14 08:52:09;;;;;;;9.30;8.40;;;;;;;-128.00;-1.00;-1.00;105705;1251;1058611;-74
2023/05/14 08:54:35;;;;;;;11.40;10.30;;;;;;;-128.00;-1.00;-1.00;105694;1253;1004290;-74
2023/05/14 08:57:03;;;;;;;11.70;10.50;;;;;;;-128.00;-1.00;-1.00;105418;1255;1004207;-73
2023/05/14 08:59:30;;;;;;;9.80;8.90;;;;;;;-128.00;-1.00;-1.00;105241;1256;1004458;-72
2023/05/14 09:02:00;;;;;;;9.80;8.40;;;;;;;-128.00;-1.00;-1.00;105426;1255;1003945;-73
2023/05/14 09:04:28;;;;;;;10.20;9.20;;;;;;;-128.00;-1.00;-1.00;105432;1255;1059397;-72
2023/05/14 09:06:55;;;;;;;10.70;9.60;;;;;;;-128.00;-1.00;-1.00;105391;1255;1004175;-73
2023/05/14 09:09:22;;;;;;;8.30;7.60;;;;;;;-128.00;-1.00;-1.00;105435;1256;1003905;-72
2023/05/14 09:11:51;;;;;;;7.60;7.00;;;;;;;-128.00;-1.00;-1.00;105265;1256;1004732;-72
2023/05/14 09:14:19;;;;;;;7.10;6.50;;;;;;;-128.00;-1.00;-1.00;105409;1255;1054313;-72
2023/05/14 09:16:48;;;;;;;9.10;8.30;;;;;;;-128.00;-1.00;-1.00;105340;1255;1003771;-73
2023/05/14 09:19:17;;;;;;;7.50;6.90;;;;;;;-128.00;-1.00;-1.00;105388;1256;1045128;-73
2023/05/14 09:21:45;;;;;;;7.60;5.50;;;;;;;-128.00;-1.00;-1.00;105413;1256;1046069;-72
2023/05/14 09:24:22;;;;;;;5.90;5.00;;;;;;;-128.00;-1.00;-1.00;105421;1256;1004800;-73
2023/05/14 09:26:51;;;;;;;5.80;5.40;;;;;;;-128.00;-1.00;-1.00;105275;1256;1056224;-72
2023/05/14 09:29:18;;;;;;;5.70;5.20;;;;;;;-128.00;-1.00;-1.00;105682;1253;1059644;-75
2023/05/14 09:31:45;;;;;;;5.70;5.30;;;;;;;-128.00;-1.00;-1.00;105744;1252;1004003;-73
2023/05/14 09:34:27;;;;;;;5.70;5.10;;;;;;;-128.00;-1.00;-1.00;105448;1252;1003894;-73
2023/05/14 09:37:00;;;;;;;4.90;4.40;;;;;;;-128.00;-1.00;-1.00;105786;1252;1061764;-73
2023/05/14 09:39:27;;;;;;;5.10;4.70;;;;;;;-128.00;-1.00;-1.00;105489;1253;1055634;-73
2023/05/14 09:41:55;;;;;;;3.90;3.60;;;;;;;-128.00;-1.00;-1.00;105762;1253;1004123;-73
2023/05/14 09:44:22;;;;;;;3.80;3.50;;;;;;;-128.00;-1.00;-1.00;105712;1251;1004381;-73
2023/05/14 09:46:52;;;;;;;4.10;3.80;;;;;;;-128.00;-1.00;-1.00;105820;1253;1004364;-79
2023/05/14 09:49:19;;;;;;;;;;;;;;;-128.00;-1.00;-1.00;105784;1253;1061112;-72
2023/05/14 09:51:47;;;;;;;3.60;3.30;;;;;;;-128.00;-1.00;-1.00;105758;1253;1004207;-73
2023/05/14 09:54:14;;;;;;;4.30;4.00;;;;;;;-128.00;-1.00;-1.00;105741;1253;1003745;-72
2023/05/14 09:56:42;;;;;;;4.00;3.50;;;;;;;-128.00;-1.00;-1.00;105769;1253;1004606;-72
2023/05/14 09:59:09;;;;;;;4.00;3.70;;;;;;;-128.00;-1.00;-1.00;105719;1255;1047665;-73
2023/05/14 10:01:36;;;;;;;3.50;3.20;;;;;;;-128.00;-1.00;-1.00;105740;1252;1004901;-72
2023/05/14 10:04:06;;;;;;;3.50;3.20;;;;;;;-128.00;-1.00;-1.00;105784;1252;1004758;-73
2023/05/14 10:06:37;;;;;;;4.30;3.90;;;;;;;-128.00;-1.00;-1.00;105725;1253;1058280;-72
2023/05/14 10:09:08;;;;;;;4.10;3.70;;;;;;;-128.00;-1.00;-1.00;105747;1251;1045269;-73
2023/05/14 10:11:37;;;;;;;5.00;3.60;;;;;;;-128.00;-1.00;-1.00;105712;1255;1047421;-73
2023/05/14 10:14:16;;;;;;;4.70;4.10;;;;;;;-128.00;-1.00;-1.00;105783;1251;1061949;-73
2023/05/14 10:16:49;;;;;;;3.70;3.30;;;;;;;-128.00;-1.00;-1.00;105780;1251;1055680;-73
2023/05/14 10:19:18;;;;;;;4.70;3.40;;;;;;;-128.00;-1.00;-1.00;105756;1252;1058920;-73
2023/05/14 10:21:48;;;;;;;3.80;3.40;;;;;;;-128.00;-1.00;-1.00;105717;1251;1044462;-73
2023/05/14 10:24:15;;;;;;;3.60;3.40;;;;;;;-128.00;-1.00;-1.00;105734;1251;1046454;-73
2023/05/14 10:26:41;;;;;;;4.40;3.40;;;;;;;-128.00;-1.00;-1.00;105731;1251;1004563;-73
2023/05/14 10:29:10;;;;;;;4.40;3.60;;;;;;;-128.00;-1.00;-1.00;105751;1251;1003787;-73
2023/05/14 10:31:50;;;;;;;3.10;2.90;;;;;;;-128.00;-1.00;-1.00;105717;1251;1003658;-73
2023/05/14 10:34:37;;;;;;;3.30;3.00;;;;;;;-128.00;-1.00;-1.00;105718;1251;1044351;-73
2023/05/14 10:37:05;;;;;;;3.80;3.30;;;;;;;-128.00;-1.00;-1.00;105760;1251;1047081;-73
2023/05/14 10:39:42;;;;;;;4.60;3.50;;;;;;;-128.00;-1.00;-1.00;105703;1251;1061476;-74
2023/05/14 10:42:30;;;;;;;3.20;3.00;;;;;;;-128.00;-1.00;-1.00;105724;1251;1055947;-73
2023/05/14 10:45:00;;;;;;;2.70;2.50;;;;;;;-128.00;-1.00;-1.00;105758;1251;1059442;-74
2023/05/14 10:47:27;;;;;;;;;;;;;;;-128.00;-1.00;-1.00;105724;1251;1044877;-73
2023/05/14 10:49:57;;;;;;;3.30;2.90;;;;;;;-128.00;-1.00;-1.00;105720;1251;1005025;-74
2023/05/14 10:52:24;;;;;;;;;;;;;;;-128.00;-1.00;-1.00;105749;1251;1061347;-73
2023/05/14 10:55:08;;;;;;;3.30;3.00;;;;;;;-128.00;-1.00;-1.00;105500;1251;1004697;-74
2023/05/14 10:57:38;;;;;;;4.10;3.70;;;;;;;-128.00;-1.00;-1.00;105725;1251;1060753;-74
2023/05/14 11:00:07;;;;;;;4.30;3.30;;;;;;;-128.00;-1.00;-1.00;105723;1251;1004410;-72
2023/05/14 11:02:36;;;;;;;3.50;3.20;;;;;;;-128.00;-1.00;-1.00;105710;1251;1046863;-72
2023/05/14 11:05:07;;;;;;;4.10;3.70;;;;;;;-128.00;-1.00;-1.00;105710;1251;1060804;-73
2023/05/14 11:07:37;;;;;;;3.30;3.00;;;;;;;-128.00;-1.00;-1.00;105537;1251;1055440;-73
2023/05/14 11:10:07;;;;;;;2.80;2.60;;;;;;;-128.00;-1.00;-1.00;105727;1251;1059882;-73
2023/05/14 11:12:35;;;;;;;2.90;2.60;;;;;;;-128.00;-1.00;-1.00;105711;1251;1044291;-73